Time;durP1;ratioP1;P1;durP2;ratioP2;P2;SDS_P1;SDS_P2;PMS_P1;PMS_P2;Temp;Humidity;BMP_temperature;BMP_pressure;BME280_temperature;BME280_humidity;BME280_pressure;Samples;Min_cycle;Max_cycle;Signal;HPM_P1;HPM_P2
2022/07/27 00:01:48;;;;;;;;;;;14.80;99.90;;;;;;4999489;28;19961;-83
2022/07/27 00:04:19;;;;;;;;;;;14.70;99.90;;;;;;4984321;28;19933;-82
2022/07/27 00:06:46;;;;;;;;;;;14.70;99.90;;;;;;5006455;28;19980;-81
2022/07/27 00:09:17;;;;;;;;;;;14.70;99.90;;;;;;4983375;28;19953;-82
2022/07/27 00:11:46;;;;;;;;;;;14.60;99.90;;;;;;5011933;28;20389;-80
2022/07/27 00:14:13;;;;;;;;;;;14.60;99.90;;;;;;4998978;28;19930;-83
2022/07/27 00:16:40;;;;;;;;;;;14.60;99.90;;;;;;5011262;28;20187;-82
2022/07/27 00:19:08;;;;;;;;;;;14.50;99.90;;;;;;4980944;28;19972;-82
2022/07/27 00:21:35;;;;;;;;;;;14.50;99.90;;;;;;5010330;28;19940;-80
2022/07/27 00:24:07;;;;;;;;;;;11.50;99.90;;;;;;4979206;28;20023;-80
2022/07/27 00:26:34;;;;;;;;;;;14.50;99.90;;;;;;4996435;28;19926;-79
2022/07/27 00:29:03;;;;;;;;;;;14.50;99.90;;;;;;4965855;28;19937;-81
2022/07/27 00:31:30;;;;;;;;;;;14.50;99.90;;;;;;4969930;28;20016;-78
2022/07/27 00:33:59;;;;;;;;;;;;;;;;;;4967836;28;19941;-81
2022/07/27 00:36:29;;;;;;;;;;;14.40;99.90;;;;;;4971289;28;19937;-83
2022/07/27 00:38:56;;;;;;;;;;;14.50;99.90;;;;;;4965978;28;20390;-79
2022/07/27 00:41:23;;;;;;;;;;;14.50;99.90;;;;;;4992901;28;19937;-83
2022/07/27 00:43:51;;;;;;;;;;;14.40;99.90;;;;;;4965917;28;19930;-79
2022/07/27 00:46:19;;;;;;;;;;;14.40;99.90;;;;;;4966374;28;19926;-80
2022/07/27 00:48:47;;;;;;;;;;;14.40;99.90;;;;;;4970573;28;20025;-81
2022/07/27 00:51:15;;;;;;;;;;;14.40;99.90;;;;;;5000460;28;19980;-82
2022/07/27 00:53:42;;;;;;;;;;;14.40;99.90;;;;;;4967095;28;19930;-78
2022/07/27 00:56:11;;;;;;;;;;;14.40;99.90;;;;;;5000088;28;20040;-81
2022/07/27 00:58:39;;;;;;;;;;;14.30;99.90;;;;;;4963262;28;19933;-87
2022/07/27 01:01:06;;;;;;;;;;;14.40;99.90;;;;;;4999748;28;19981;-87
2022/07/27 01:03:35;;;;;;;;;;;14.30;99.90;;;;;;4970088;28;19984;-85
2022/07/27 01:06:01;;;;;;;;;;;14.40;99.90;;;;;;4982919;28;20317;-84
2022/07/27 01:08:29;;;;;;;;;;;14.30;99.90;;;;;;4967717;28;19926;-86
2022/07/27 01:10:57;;;;;;;;;;;14.20;99.90;;;;;;4998895;28;19941;-86
2022/07/27 01:13:28;;;;;;;;;;;14.30;99.90;;;;;;4983469;28;19934;-86
2022/07/27 01:15:56;;;;;;;;;;;14.30;99.90;;;;;;5002651;28;19949;-84
2022/07/27 01:18:28;;;;;;;;;;;14.30;99.90;;;;;;4985870;28;19930;-87
2022/07/27 01:20:58;;;;;;;;;;;14.30;99.90;;;;;;5000225;28;19934;-87
2022/07/27 01:23:27;;;;;;;;;;;14.30;99.90;;;;;;4984649;28;19926;-82
2022/07/27 01:25:54;;;;;;;;;;;14.30;99.90;;;;;;4986797;28;20151;-87
2022/07/27 01:28:21;;;;;;;;;;;14.30;99.90;;;;;;4987263;28;21299;-87
2022/07/27 01:30:48;;;;;;;;;;;14.30;99.90;;;;;;4973348;28;19930;-85
2022/07/27 01:33:15;;;;;;;;;;;14.20;99.90;;;;;;4971477;28;20314;-85
2022/07/27 01:35:42;;;;;;;;;;;14.20;99.90;;;;;;4970933;28;19934;-85
2022/07/27 01:38:10;;;;;;;;;;;14.10;99.90;;;;;;5002946;28;20356;-84
2022/07/27 01:40:39;;;;;;;;;;;14.10;99.90;;;;;;4995249;28;20165;-86
2022/07/27 01:43:07;;;;;;;;;;;14.00;99.90;;;;;;4996631;28;19978;-84
2022/07/27 01:45:34;;;;;;;;;;;14.00;99.90;;;;;;4986030;28;19934;-85
2022/07/27 01:48:03;;;;;;;;;;;14.00;99.90;;;;;;4998880;28;20063;-86
2022/07/27 01:50:30;;;;;;;;;;;13.90;99.90;;;;;;5001708;28;20607;-85
2022/07/27 01:52:57;;;;;;;;;;;13.90;99.90;;;;;;4967631;28;19934;-86
2022/07/27 01:55:24;;;;;;;;;;;13.90;99.90;;;;;;5000169;28;20534;-85
2022/07/27 01:57:53;;;;;;;;;;;13.80;99.90;;;;;;4979174;28;20028;-86
2022/07/27 02:00:20;;;;;;;;;;;13.80;99.90;;;;;;4980202;28;19933;-83
2022/07/27 02:02:47;;;;;;;;;;;13.70;99.90;;;;;;4963696;28;19930;-85
2022/07/27 02:05:14;;;;;;;;;;;13.70;99.90;;;;;;4981681;28;19941;-83
2022/07/27 02:07:42;;;;;;;;;;;13.60;99.90;;;;;;4983100;28;20437;-86
2022/07/27 02:10:09;;;;;;;;;;;13.60;99.90;;;;;;4979408;28;19930;-86
2022/07/27 02:12:35;;;;;;;;;;;13.50;99.90;;;;;;4994763;28;20338;-82
2022/07/27 02:15:05;;;;;;;;;;;13.40;99.90;;;;;;4962495;28;20640;-86
2022/07/27 02:17:32;;;;;;;;;;;13.40;99.90;;;;;;4977133;28;19938;-85
2022/07/27 02:19:59;;;;;;;;;;;13.20;99.90;;;;;;4977616;28;19934;-85
2022/07/27 02:22:28;;;;;;;;;;;13.20;99.90;;;;;;4988432;28;20055;-84
2022/07/27 02:31:53;;;;;;;;;;;13.00;99.90;;;;;;4977251;28;19925;-85
2022/07/27 02:34:20;;;;;;;;;;;12.80;99.90;;;;;;4993647;28;19934;-83
2022/07/27 02:39:58;;;;;;;;;;;12.80;99.90;;;;;;4988217;28;20336;-82
2022/07/27 02:42:24;;;;;;;;;;;12.70;99.90;;;;;;4990576;28;19937;-82
2022/07/27 02:44:51;;;;;;;;;;;12.70;99.90;;;;;;4993655;28;19932;-82
2022/07/27 02:47:20;;;;;;;;;;;12.60;99.90;;;;;;4968615;28;20127;-80
2022/07/27 02:49:47;;;;;;;;;;;12.60;99.90;;;;;;4971303;28;19926;-79
2022/07/27 02:52:13;;;;;;;;;;;12.50;99.90;;;;;;4997718;28;20432;-78
2022/07/27 02:54:40;;;;;;;;;;;12.50;99.90;;;;;;5006236;28;19938;-80
2022/07/27 02:57:07;;;;;;;;;;;12.50;99.90;;;;;;5008765;28;19934;-81
2022/07/27 02:59:34;;;;;;;;;;;12.40;99.90;;;;;;4978510;28;19994;-81
2022/07/27 03:02:01;;;;;;;;;;;12.40;99.90;;;;;;4996505;28;19958;-81
2022/07/27 03:04:29;;;;;;;;;;;12.30;99.90;;;;;;4998740;28;19968;-81
2022/07/27 03:06:56;;;;;;;;;;;12.30;99.90;;;;;;4997294;28;19977;-81
2022/07/27 03:09:23;;;;;;;;;;;12.30;99.90;;;;;;4999428;28;19980;-81
2022/07/27 03:11:51;;;;;;;;;;;12.20;99.90;;;;;;4995857;28;19945;-81
2022/07/27 03:14:18;;;;;;;;;;;12.20;99.90;;;;;;5014448;28;19961;-81
2022/07/27 03:16:48;;;;;;;;;;;12.10;99.90;;;;;;5013249;28;19949;-81
2022/07/27 03:19:15;;;;;;;;;;;12.10;99.90;;;;;;5019800;28;19933;-82
2022/07/27 03:21:43;;;;;;;;;;;12.10;99.90;;;;;;4982762;28;19954;-82
2022/07/27 03:24:10;;;;;;;;;;;12.00;99.90;;;;;;5017207;28;19992;-81
2022/07/27 03:26:37;;;;;;;;;;;12.00;99.90;;;;;;4997154;28;20340;-82
2022/07/27 03:29:04;;;;;;;;;;;12.00;99.90;;;;;;5010970;28;19957;-81
2022/07/27 03:31:31;;;;;;;;;;;12.00;99.90;;;;;;4988269;28;19953;-81
2022/07/27 03:33:58;;;;;;;;;;;11.90;99.90;;;;;;4997819;28;19993;-82
2022/07/27 03:36:25;;;;;;;;;;;11.90;99.90;;;;;;5012911;28;19922;-82
2022/07/27 03:38:54;;;;;;;;;;;11.80;99.90;;;;;;4979801;28;19929;-82
2022/07/27 03:41:21;;;;;;;;;;;11.80;99.90;;;;;;4979750;28;19934;-81
2022/07/27 03:43:48;;;;;;;;;;;11.80;99.90;;;;;;4998734;28;19934;-82
2022/07/27 03:46:15;;;;;;;;;;;11.70;99.90;;;;;;4990790;28;19979;-82
2022/07/27 03:48:42;;;;;;;;;;;11.70;99.90;;;;;;5013208;28;19929;-82
2022/07/27 03:51:09;;;;;;;;;;;11.70;99.90;;;;;;5015840;28;19930;-81
2022/07/27 03:53:36;;;;;;;;;;;11.60;99.90;;;;;;4980866;28;19956;-82
2022/07/27 03:56:05;;;;;;;;;;;11.60;99.90;;;;;;4997216;28;20011;-81
2022/07/27 03:58:32;;;;;;;;;;;11.60;99.90;;;;;;4992699;28;19976;-81
2022/07/27 04:00:59;;;;;;;;;;;11.60;99.90;;;;;;5001913;28;20001;-81
2022/07/27 04:03:26;;;;;;;;;;;11.50;99.90;;;;;;4999446;28;19997;-81
2022/07/27 04:05:53;;;;;;;;;;;11.50;99.90;;;;;;4987289;28;20249;-82
2022/07/27 04:08:20;;;;;;;;;;;11.50;99.90;;;;;;4998971;28;19934;-81
2022/07/27 04:10:47;;;;;;;;;;;11.50;99.90;;;;;;4980054;28;19936;-82
2022/07/27 04:13:17;;;;;;;;;;;11.50;99.90;;;;;;5015457;28;19933;-81
2022/07/27 04:15:44;;;;;;;;;;;11.50;99.90;;;;;;5011718;28;19933;-82
2022/07/27 04:18:11;;;;;;;;;;;11.60;99.90;;;;;;4978689;28;19933;-78
2022/07/27 04:20:38;;;;;;;;;;;11.60;99.90;;;;;;5001418;28;19934;-80
2022/07/27 04:23:07;;;;;;;;;;;11.60;99.90;;;;;;4992959;28;19936;-76
2022/07/27 04:25:39;;;;;;;;;;;11.60;99.90;;;;;;4999029;28;19921;-79
2022/07/27 04:28:09;;;;;;;;;;;11.70;99.90;;;;;;4999230;28;20036;-81
2022/07/27 04:30:40;;;;;;;;;;;11.70;99.90;;;;;;5006655;28;19941;-79
2022/07/27 04:33:09;;;;;;;;;;;11.70;99.90;;;;;;4986049;28;19934;-81
2022/07/27 04:35:36;;;;;;;;;;;11.80;99.90;;;;;;5002475;28;19941;-77
2022/07/27 04:38:03;;;;;;;;;;;11.80;99.90;;;;;;4987190;28;19941;-80
2022/07/27 04:40:32;;;;;;;;;;;11.80;99.90;;;;;;4989801;28;19934;-78
2022/07/27 04:42:59;;;;;;;;;;;11.90;99.90;;;;;;4999202;28;19988;-80
2022/07/27 04:45:26;;;;;;;;;;;12.10;99.90;;;;;;4989437;28;19973;-77
2022/07/27 04:47:55;;;;;;;;;;;12.00;99.90;;;;;;4990237;28;19940;-78
2022/07/27 04:50:22;;;;;;;;;;;12.00;99.90;;;;;;5004560;28;21387;-78
2022/07/27 04:52:50;;;;;;;;;;;12.20;99.90;;;;;;4987035;28;19988;-77
2022/07/27 04:55:17;;;;;;;;;;;12.20;99.90;;;;;;5006014;28;19940;-78
2022/07/27 04:57:44;;;;;;;;;;;12.20;99.90;;;;;;5012718;28;20052;-77
2022/07/27 05:00:11;;;;;;;;;;;12.30;99.90;;;;;;5014752;28;19930;-79
2022/07/27 05:02:44;;;;;;;;;;;12.30;99.90;;;;;;4994765;28;19934;-77
2022/07/27 05:05:13;;;;;;;;;;;12.40;99.90;;;;;;4997205;28;19980;-78
2022/07/27 05:07:40;;;;;;;;;;;12.50;99.90;;;;;;4998189;28;20071;-77
2022/07/27 05:10:07;;;;;;;;;;;12.70;99.90;;;;;;4978475;28;20000;-79
2022/07/27 05:12:35;;;;;;;;;;;12.60;99.90;;;;;;4980303;28;20021;-78
2022/07/27 05:15:05;;;;;;;;;;;12.80;99.90;;;;;;5001130;28;19972;-83
2022/07/27 05:17:34;;;;;;;;;;;13.00;99.90;;;;;;4984647;28;19936;-84
2022/07/27 05:20:02;;;;;;;;;;;13.00;99.90;;;;;;5015142;28;20535;-81
2022/07/27 05:22:31;;;;;;;;;;;13.10;99.90;;;;;;4996559;28;20241;-79
2022/07/27 05:24:58;;;;;;;;;;;13.30;99.90;;;;;;4983963;28;19929;-80
2022/07/27 05:27:26;;;;;;;;;;;13.40;99.90;;;;;;5018515;28;19929;-86
2022/07/27 05:29:53;;;;;;;;;;;13.60;99.90;;;;;;4998917;28;19937;-79
2022/07/27 05:32:20;;;;;;;;;;;13.80;99.90;;;;;;4974749;28;20348;-82
2022/07/27 05:34:48;;;;;;;;;;;13.90;99.90;;;;;;4973154;28;20527;-82
2022/07/27 05:37:16;;;;;;;;;;;14.10;99.90;;;;;;5006333;28;19929;-80
2022/07/27 05:39:45;;;;;;;;;;;14.40;99.90;;;;;;4968118;28;19941;-79
2022/07/27 05:42:12;;;;;;;;;;;14.60;99.90;;;;;;4964629;28;19969;-78
2022/07/27 05:44:40;;;;;;;;;;;15.10;99.90;;;;;;4964401;28;19941;-79
2022/07/27 05:47:07;;;;;;;;;;;16.50;99.90;;;;;;4981697;28;20066;-80
2022/07/27 05:49:34;;;;;;;;;;;18.20;99.90;;;;;;4990115;28;20801;-80
2022/07/27 05:52:01;;;;;;;;;;;20.00;99.90;;;;;;4983563;28;19929;-80
2022/07/27 05:54:28;;;;;;;;;;;21.70;99.90;;;;;;5001831;28;19925;-79
2022/07/27 05:56:56;;;;;;;;;;;23.30;99.90;;;;;;5005025;28;19938;-82
2022/07/27 05:59:23;;;;;;;;;;;24.70;99.90;;;;;;5004307;28;20002;-79
2022/07/27 06:01:50;;;;;;;;;;;26.00;99.90;;;;;;4998072;28;19968;-82
2022/07/27 06:04:18;;;;;;;;;;;27.10;99.90;;;;;;5011854;28;19993;-81
2022/07/27 06:09:29;;;;;;;;;;;28.50;99.90;;;;;;4979367;28;19926;-80
2022/07/27 06:11:57;;;;;;;;;;;29.40;99.90;;;;;;5010568;28;19937;-80
2022/07/27 06:14:24;;;;;;;;;;;30.30;99.90;;;;;;4980773;28;20231;-80
2022/07/27 06:16:51;;;;;;;;;;;31.10;99.90;;;;;;4998819;28;19992;-80
2022/07/27 06:19:18;;;;;;;;;;;31.10;99.90;;;;;;4981898;28;19973;-80
2022/07/27 06:21:45;;;;;;;;;;;31.50;99.90;;;;;;4981191;28;19929;-80
2022/07/27 06:24:13;;;;;;;;;;;31.50;99.90;;;;;;4982108;28;19925;-80
2022/07/27 06:26:42;;;;;;;;;;;31.80;99.10;;;;;;4971495;28;19941;-78
2022/07/27 06:29:10;;;;;;;;;;;32.40;98.30;;;;;;4989645;28;19949;-80
2022/07/27 06:31:37;;;;;;;;;;;32.90;96.20;;;;;;4987309;28;19930;-78
2022/07/27 06:34:04;;;;;;;;;;;33.30;94.70;;;;;;4983632;28;19930;-80
2022/07/27 06:36:31;;;;;;;;;;;33.60;92.90;;;;;;4987164;28;19934;-79
2022/07/27 06:38:58;;;;;;;;;;;34.00;91.80;;;;;;4970384;28;19984;-78
2022/07/27 06:41:25;;;;;;;;;;;34.40;91.00;;;;;;4967499;28;19926;-80
2022/07/27 06:43:52;;;;;;;;;;;34.80;89.10;;;;;;5002584;28;20843;-78
2022/07/27 06:46:20;;;;;;;;;;;35.30;87.10;;;;;;4967526;28;19984;-78
2022/07/27 06:48:47;;;;;;;;;;;35.00;78.50;;;;;;4985519;28;19988;-78
2022/07/27 06:51:14;;;;;;;;;;;34.60;78.10;;;;;;4999908;28;19975;-78
2022/07/27 06:53:41;;;;;;;;;;;34.90;77.50;;;;;;4980152;28;19926;-79
2022/07/27 06:56:09;;;;;;;;;;;34.90;77.80;;;;;;5001424;28;20396;-79
2022/07/27 06:58:37;;;;;;;;;;;34.80;72.80;;;;;;4971306;28;19980;-83
2022/07/27 07:01:04;;;;;;;;;;;34.70;75.10;;;;;;4965126;28;19934;-82
2022/07/27 07:03:33;;;;;;;;;;;35.30;75.30;;;;;;4976750;28;19936;-83
2022/07/27 07:06:02;;;;;;;;;;;35.20;70.90;;;;;;4965101;28;19977;-82
2022/07/27 07:08:29;;;;;;;;;;;35.10;69.30;;;;;;4983548;28;19940;-84
2022/07/27 07:10:56;;;;;;;;;;;34.70;67.10;;;;;;4980677;28;19940;-80
2022/07/27 07:13:23;;;;;;;;;;;34.40;68.60;;;;;;4984869;28;19977;-82
2022/07/27 07:15:50;;;;;;;;;;;34.40;68.80;;;;;;4967402;28;19929;-81
2022/07/27 07:18:17;;;;;;;;;;;34.40;64.80;;;;;;5000268;28;20345;-82
2022/07/27 07:20:46;;;;;;;;;;;33.90;67.70;;;;;;4999674;28;19938;-80
2022/07/27 07:23:13;;;;;;;;;;;34.20;69.50;;;;;;4977507;28;19934;-83
2022/07/27 07:25:41;;;;;;;;;;;34.80;69.00;;;;;;5000681;28;19940;-82
2022/07/27 07:28:08;;;;;;;;;;;35.40;66.90;;;;;;4977134;28;20014;-83
2022/07/27 07:30:35;;;;;;;;;;;35.20;66.10;;;;;;5001101;28;19960;-83
2022/07/27 07:33:05;;;;;;;;;;;35.30;64.60;;;;;;4985792;28;19987;-80
2022/07/27 07:35:33;;;;;;;;;;;33.70;63.90;;;;;;4970736;28;19949;-81
2022/07/27 07:38:01;;;;;;;;;;;32.90;64.70;;;;;;4981185;28;20179;-83
2022/07/27 07:40:29;;;;;;;;;;;32.70;67.00;;;;;;4967321;28;19992;-79
2022/07/27 07:42:58;;;;;;;;;;;32.80;64.50;;;;;;4963450;28;19929;-83
2022/07/27 07:45:26;;;;;;;;;;;32.80;63.80;;;;;;4989460;28;19922;-82
2022/07/27 07:47:53;;;;;;;;;;;32.70;63.90;;;;;;4970611;28;20370;-82
2022/07/27 07:50:21;;;;;;;;;;;32.90;64.60;;;;;;4981646;28;19941;-82
2022/07/27 07:52:48;;;;;;;;;;;33.40;63.30;;;;;;4982266;28;19938;-84
2022/07/27 07:55:20;;;;;;;;;;;33.50;63.40;;;;;;4999000;28;19937;-81
2022/07/27 07:57:47;;;;;;;;;;;33.70;62.50;;;;;;4998719;28;19954;-81
2022/07/27 08:00:14;;;;;;;;;;;33.90;62.80;;;;;;4964215;28;19934;-84
2022/07/27 08:02:42;;;;;;;;;;;;;;;;;;4999582;28;21133;-80
2022/07/27 08:05:11;;;;;;;;;;;34.00;61.10;;;;;;4978462;28;19953;-81
2022/07/27 08:07:38;;;;;;;;;;;34.10;58.40;;;;;;4978964;28;20413;-85
2022/07/27 08:10:06;;;;;;;;;;;32.90;57.60;;;;;;5002350;28;20047;-84
2022/07/27 08:12:35;;;;;;;;;;;31.10;58.40;;;;;;5001162;28;19934;-82
2022/07/27 08:15:02;;;;;;;;;;;29.00;60.30;;;;;;4983821;28;19941;-81
2022/07/27 08:17:28;;;;;;;;;;;27.70;63.50;;;;;;4969388;28;19926;-83
2022/07/27 08:19:55;;;;;;;;;;;26.90;65.50;;;;;;4987097;28;19934;-83
2022/07/27 08:22:23;;;;;;;;;;;26.50;65.60;;;;;;4971309;28;19934;-80
2022/07/27 08:24:51;;;;;;;;;;;25.60;65.80;;;;;;5002896;28;20012;-81
2022/07/27 08:27:18;;;;;;;;;;;25.00;68.30;;;;;;4979037;28;19940;-84
2022/07/27 08:29:46;;;;;;;;;;;24.50;69.80;;;;;;4976994;28;19931;-79
2022/07/27 08:32:14;;;;;;;;;;;24.20;70.90;;;;;;4964798;28;19992;-82
2022/07/27 08:34:41;;;;;;;;;;;24.20;73.20;;;;;;4998245;28;20001;-84
2022/07/27 08:37:08;;;;;;;;;;;25.10;75.10;;;;;;4982755;28;19933;-81
2022/07/27 08:39:35;;;;;;;;;;;26.30;74.60;;;;;;4963265;28;20790;-83
2022/07/27 08:42:03;;;;;;;;;;;27.20;73.20;;;;;;4962017;28;19934;-84
2022/07/27 08:44:31;;;;;;;;;;;28.00;70.50;;;;;;4982593;28;19960;-83
2022/07/27 08:47:01;;;;;;;;;;;27.80;68.80;;;;;;4983623;28;19934;-83
2022/07/27 08:49:28;;;;;;;;;;;27.20;68.70;;;;;;4998699;28;19944;-83
2022/07/27 08:51:56;;;;;;;;;;;26.50;70.30;;;;;;4980274;28;19929;-84
2022/07/27 08:54:24;;;;;;;;;;;26.40;72.60;;;;;;4985295;28;19934;-83
2022/07/27 08:56:50;;;;;;;;;;;26.50;74.20;;;;;;4981885;28;19934;-79
2022/07/27 08:59:18;;;;;;;;;;;27.20;73.20;;;;;;4974344;28;19934;-84
2022/07/27 09:01:45;;;;;;;;;;;27.90;72.90;;;;;;4997240;28;20090;-80
2022/07/27 09:04:13;;;;;;;;;;;28.90;72.00;;;;;;4966978;28;19934;-82
2022/07/27 09:06:41;;;;;;;;;;;29.90;70.20;;;;;;4965551;28;19934;-82
2022/07/27 09:09:08;;;;;;;;;;;30.40;66.60;;;;;;4971543;28;21247;-82
2022/07/27 09:11:36;;;;;;;;;;;29.30;65.10;;;;;;5001107;28;19934;-85
2022/07/27 09:14:03;;;;;;;;;;;28.90;64.70;;;;;;4969832;28;20007;-85
2022/07/27 09:16:30;;;;;;;;;;;28.40;65.60;;;;;;4986332;28;19977;-81
2022/07/27 09:18:59;;;;;;;;;;;27.90;67.70;;;;;;4997330;28;19989;-84
2022/07/27 09:21:28;;;;;;;;;;;26.90;68.50;;;;;;4980317;28;19929;-84
2022/07/27 09:23:56;;;;;;;;;;;26.40;69.90;;;;;;4960096;28;19934;-83
2022/07/27 09:26:24;;;;;;;;;;;25.90;71.20;;;;;;4971528;28;19930;-84
2022/07/27 09:28:53;;;;;;;;;;;25.60;71.90;;;;;;4998337;28;19941;-83
2022/07/27 09:31:21;;;;;;;;;;;25.30;72.60;;;;;;4973894;28;20415;-80
2022/07/27 09:33:49;;;;;;;;;;;24.70;72.50;;;;;;4954965;28;20028;-82
2022/07/27 09:36:29;;;;;;;;;;;24.70;74.30;;;;;;4953693;28;19934;-84
2022/07/27 09:39:05;;;;;;;;;;;24.50;74.60;;;;;;4963069;28;20413;-81
2022/07/27 09:41:39;;;;;;;;;;;24.30;75.40;;;;;;4951231;28;19934;-84
2022/07/27 09:44:06;;;;;;;;;;;24.20;75.00;;;;;;4972633;28;19980;-83
2022/07/27 09:46:33;;;;;;;;;;;24.30;77.10;;;;;;4959418;28;21185;-83
2022/07/27 09:49:00;;;;;;;;;;;24.50;77.60;;;;;;4957129;28;19941;-82
2022/07/27 09:51:28;;;;;;;;;;;24.90;76.80;;;;;;4975292;28;19969;-81
2022/07/27 09:53:55;;;;;;;;;;;24.50;75.90;;;;;;4959655;28;19930;-82
2022/07/27 09:56:26;;;;;;;;;;;24.30;76.50;;;;;;4978424;28;20656;-83
2022/07/27 09:58:55;;;;;;;;;;;24.20;76.50;;;;;;4997831;28;19956;-80
2022/07/27 10:01:23;;;;;;;;;;;24.30;76.60;;;;;;4971075;28;20024;-83
2022/07/27 10:03:53;;;;;;;;;;;24.40;76.40;;;;;;4991320;28;19925;-79
2022/07/27 10:06:21;;;;;;;;;;;24.60;77.00;;;;;;4989658;28;19980;-79
2022/07/27 10:08:48;;;;;;;;;;;24.90;75.80;;;;;;5007289;28;20205;-78
2022/07/27 10:11:16;;;;;;;;;;;24.80;74.20;;;;;;4973547;28;21280;-79
2022/07/27 10:13:44;;;;;;;;;;;24.50;74.80;;;;;;4972549;28;20517;-82
2022/07/27 10:16:13;;;;;;;;;;;24.60;75.60;;;;;;4981281;28;19941;-79
2022/07/27 10:18:45;;;;;;;;;;;24.90;75.00;;;;;;4980915;28;19934;-81
2022/07/27 10:21:14;;;;;;;;;;;24.70;72.80;;;;;;4971706;28;19957;-81
2022/07/27 10:23:53;;;;;;;;;;;24.40;73.60;;;;;;4990542;28;19933;-78
2022/07/27 10:26:21;;;;;;;;;;;24.40;73.80;;;;;;4988899;28;19926;-81
2022/07/27 10:28:50;;;;;;;;;;;24.50;74.00;;;;;;4988038;28;19941;-79
2022/07/27 10:31:18;;;;;;;;;;;24.70;74.10;;;;;;4968772;28;20574;-75
2022/07/27 10:33:47;;;;;;;;;;;25.00;73.50;;;;;;4978791;28;19934;-78
2022/07/27 10:36:18;;;;;;;;;;;25.00;73.80;;;;;;4961039;28;19938;-78
2022/07/27 10:38:46;;;;;;;;;;;25.10;73.60;;;;;;4996454;28;19940;-79
2022/07/27 10:41:24;;;;;;;;;;;25.30;72.80;;;;;;4992898;28;19934;-80
2022/07/27 10:44:12;;;;;;;;;;;25.40;72.80;;;;;;4975109;28;19942;-81
2022/07/27 10:46:44;;;;;;;;;;;25.50;71.70;;;;;;4989538;28;19980;-80
2022/07/27 10:49:18;;;;;;;;;;;25.40;72.00;;;;;;4967717;28;20015;-81
2022/07/27 10:51:45;;;;;;;;;;;25.20;71.70;;;;;;4959926;28;19941;-80
2022/07/27 10:54:19;;;;;;;;;;;24.70;72.00;;;;;;4990520;28;19944;-81
2022/07/27 10:56:47;;;;;;;;;;;24.50;72.60;;;;;;4974003;28;19957;-78
2022/07/27 10:59:14;;;;;;;;;;;24.40;73.00;;;;;;4963845;28;19934;-80
2022/07/27 11:01:57;;;;;;;;;;;24.40;72.80;;;;;;4963781;28;19934;-79
2022/07/27 11:04:23;;;;;;;;;;;24.50;72.50;;;;;;5002634;28;19952;-80
2022/07/27 11:06:55;;;;;;;;;;;24.60;72.80;;;;;;4979387;28;20038;-77
2022/07/27 11:09:22;;;;;;;;;;;24.50;71.80;;;;;;4987776;28;19991;-78
2022/07/27 11:11:49;;;;;;;;;;;24.40;71.40;;;;;;5000021;28;19965;-79
2022/07/27 11:14:16;;;;;;;;;;;24.40;72.30;;;;;;4997309;28;19934;-81
2022/07/27 11:16:43;;;;;;;;;;;24.50;72.50;;;;;;4981584;28;19934;-81
2022/07/27 11:19:12;;;;;;;;;;;24.60;72.60;;;;;;4982681;28;19940;-81
2022/07/27 11:21:40;;;;;;;;;;;24.50;71.50;;;;;;4983777;28;19953;-77
2022/07/27 11:24:10;;;;;;;;;;;24.40;71.00;;;;;;4967219;28;20001;-78
2022/07/27 11:26:39;;;;;;;;;;;24.30;71.50;;;;;;4963183;28;20586;-77
2022/07/27 11:29:09;;;;;;;;;;;24.10;71.50;;;;;;4995306;28;19945;-83
2022/07/27 11:31:38;;;;;;;;;;;24.00;72.30;;;;;;4957810;28;19934;-78
2022/07/27 11:34:05;;;;;;;;;;;24.30;72.40;;;;;;4975009;28;19934;-78
2022/07/27 11:36:40;;;;;;;;;;;24.30;72.60;;;;;;4956547;28;19934;-79
2022/07/27 11:39:09;;;;;;;;;;;24.40;71.60;;;;;;4979637;28;19930;-81
2022/07/27 11:41:36;;;;;;;;;;;24.40;71.40;;;;;;4994394;28;19957;-81
2022/07/27 11:44:06;;;;;;;;;;;24.40;71.10;;;;;;5018497;28;19929;-80
2022/07/27 11:46:34;;;;;;;;;;;24.40;71.10;;;;;;4988699;28;19965;-80
2022/07/27 11:49:05;;;;;;;;;;;24.30;70.50;;;;;;4989097;28;20320;-80
2022/07/27 11:51:32;;;;;;;;;;;24.20;68.80;;;;;;5001591;28;19930;-80
2022/07/27 11:54:02;;;;;;;;;;;23.90;69.00;;;;;;5005988;28;19926;-81
2022/07/27 11:56:30;;;;;;;;;;;23.80;69.20;;;;;;4981401;28;19984;-80
2022/07/27 11:59:02;;;;;;;;;;;24.00;70.30;;;;;;4982412;28;20030;-81
2022/07/27 12:01:30;;;;;;;;;;;24.50;69.90;;;;;;4998671;28;19936;-80
2022/07/27 12:04:04;;;;;;;;;;;25.10;69.90;;;;;;4982702;28;19929;-81
2022/07/27 12:06:31;;;;;;;;;;;25.70;69.80;;;;;;5015707;28;19936;-81
2022/07/27 12:08:58;;;;;;;;;;;26.00;68.30;;;;;;4983238;28;19930;-81
2022/07/27 12:11:30;;;;;;;;;;;26.00;68.20;;;;;;4975114;28;19930;-81
2022/07/27 12:14:00;;;;;;;;;;;26.10;67.80;;;;;;4986202;28;19934;-80
2022/07/27 12:16:27;;;;;;;;;;;26.20;67.90;;;;;;4990474;28;19949;-81
2022/07/27 12:18:54;;;;;;;;;;;26.20;66.50;;;;;;4983223;28;19937;-83
2022/07/27 12:21:21;;;;;;;;;;;26.20;67.20;;;;;;4977935;28;19930;-80
2022/07/27 12:23:51;;;;;;;;;;;26.60;68.00;;;;;;5005831;28;19930;-81
2022/07/27 12:26:19;;;;;;;;;;;26.50;66.70;;;;;;5012739;28;19926;-81
2022/07/27 12:29:04;;;;;;;;;;;26.40;66.50;;;;;;4978724;28;19930;-81
2022/07/27 12:31:31;;;;;;;;;;;26.60;67.00;;;;;;5003318;28;19935;-83
2022/07/27 12:33:58;;;;;;;;;;;26.80;66.90;;;;;;4992866;28;20381;-81
2022/07/27 12:36:26;;;;;;;;;;;26.90;66.60;;;;;;4981678;28;20549;-82
2022/07/27 12:38:56;;;;;;;;;;;27.10;66.90;;;;;;4994335;28;20410;-80
2022/07/27 12:41:24;;;;;;;;;;;27.30;66.30;;;;;;4997770;28;19933;-78
2022/07/27 12:44:05;;;;;;;;;;;27.20;64.10;;;;;;4971515;28;19961;-79
2022/07/27 12:46:32;;;;;;;;;;;27.00;64.80;;;;;;4974790;28;19929;-83
2022/07/27 12:48:59;;;;;;;;;;;27.00;65.00;;;;;;5006696;28;20682;-78
2022/07/27 12:51:26;;;;;;;;;;;26.60;63.40;;;;;;4972944;28;19976;-78
2022/07/27 12:53:53;;;;;;;;;;;26.10;64.30;;;;;;4996137;28;19934;-78
2022/07/27 12:56:20;;;;;;;;;;;25.70;64.00;;;;;;4974551;28;19929;-78
2022/07/27 12:59:00;;;;;;;;;;;25.50;65.10;;;;;;4974448;28;19988;-82
2022/07/27 13:01:28;;;;;;;;;;;25.70;65.30;;;;;;4974115;28;19974;-80
2022/07/27 13:03:55;;;;;;;;;;;25.60;64.70;;;;;;4979557;28;19993;-80
2022/07/27 13:06:22;;;;;;;;;;;25.60;65.20;;;;;;4979313;28;19926;-80
2022/07/27 13:08:49;;;;;;;;;;;25.50;64.80;;;;;;4992643;28;19937;-83
2022/07/27 13:11:18;;;;;;;;;;;25.20;65.10;;;;;;4985361;28;19925;-82
2022/07/27 13:13:46;;;;;;;;;;;25.10;66.00;;;;;;5004659;28;19929;-84
2022/07/27 13:16:28;;;;;;;;;;;25.20;66.30;;;;;;5027469;28;19926;-80
2022/07/27 13:19:02;;;;;;;;;;;25.30;65.50;;;;;;4995601;28;19930;-82
2022/07/27 13:21:56;;;;;;;;;;;25.20;66.10;;;;;;5005775;28;19930;-77
2022/07/27 13:25:06;;;;;;;;;;;24.50;65.30;;;;;;4894121;29;19927;-81
2022/07/27 13:27:45;;;;;;;;;;;25.40;66.70;;;;;;4917974;28;19937;-81
2022/07/27 13:30:17;;;;;;;;;;;25.40;66.40;;;;;;4983313;28;19929;-80
2022/07/27 13:32:46;;;;;;;;;;;;;;;;;;4991842;28;19929;-80
2022/07/27 13:35:16;;;;;;;;;;;25.40;66.20;;;;;;4991029;28;19968;-81
2022/07/27 13:37:55;;;;;;;;;;;25.50;66.70;;;;;;5009197;28;19926;-81
2022/07/27 13:40:23;;;;;;;;;;;25.40;66.40;;;;;;4991126;28;19933;-80
2022/07/27 13:42:51;;;;;;;;;;;25.20;65.90;;;;;;4989023;28;19925;-79
2022/07/27 13:45:19;;;;;;;;;;;25.20;66.40;;;;;;5009135;28;19917;-79
2022/07/27 13:47:47;;;;;;;;;;;25.30;67.70;;;;;;5004044;28;19998;-79
2022/07/27 13:50:17;;;;;;;;;;;25.50;66.90;;;;;;5008793;28;19964;-79
2022/07/27 13:52:46;;;;;;;;;;;;;;;;;;5012025;28;19930;-82
2022/07/27 13:55:13;;;;;;;;;;;25.60;65.60;;;;;;5005110;28;19930;-81
2022/07/27 13:57:40;;;;;;;;;;;25.60;65.60;;;;;;4974957;28;19930;-82
2022/07/27 14:00:09;;;;;;;;;;;25.50;65.50;;;;;;4975739;28;19977;-82
2022/07/27 14:02:35;;;;;;;;;;;25.40;65.50;;;;;;4978568;28;19926;-82
2022/07/27 14:05:03;;;;;;;;;;;25.40;65.80;;;;;;4978988;28;19933;-83
2022/07/27 14:07:31;;;;;;;;;;;25.40;65.70;;;;;;4996555;28;20472;-83
2022/07/27 14:12:42;;;;;;;;;;;25.50;65.50;;;;;;4981893;28;19928;-83
2022/07/27 14:15:10;;;;;;;;;;;25.50;65.90;;;;;;4978201;28;19930;-81
2022/07/27 14:17:37;;;;;;;;;;;25.30;65.40;;;;;;4978275;28;19930;-80
2022/07/27 14:20:04;;;;;;;;;;;25.20;66.20;;;;;;4978907;28;19985;-79
2022/07/27 14:22:32;;;;;;;;;;;25.30;66.00;;;;;;4979921;28;19930;-81
2022/07/27 14:24:59;;;;;;;;;;;25.50;65.30;;;;;;4977670;28;20389;-82
2022/07/27 14:27:26;;;;;;;;;;;25.60;65.20;;;;;;4979879;28;19933;-82
2022/07/27 14:29:53;;;;;;;;;;;26.00;64.80;;;;;;4975406;28;19964;-81
2022/07/27 14:32:20;;;;;;;;;;;26.20;64.50;;;;;;4998965;28;19962;-81
2022/07/27 14:34:47;;;;;;;;;;;26.30;64.00;;;;;;4981411;28;19937;-82
2022/07/27 14:37:14;;;;;;;;;;;26.20;64.50;;;;;;5014894;28;19930;-80
2022/07/27 14:39:42;;;;;;;;;;;26.00;64.40;;;;;;4992286;28;19937;-81
2022/07/27 14:42:09;;;;;;;;;;;25.60;64.50;;;;;;4981870;28;19929;-82